Portada
METAR-TAF:

METAR-TAF

Aeroports :

Wakkanai, Japó

latitud: 45-24N, longitud: 141-48E, altitud: 8 m

Observació

L'informe es va fer fa 10 hores i 25 minuts, a les 09:00 UTC
Vent 8 kt del Sud/Sud-Oest
Temperatura 21°C
Humitat 94%
Pressió 1000 hPa
Visibilitat 10 km o més
Escasses núvols a una alçada de 500 ft
Núvols disperses a una alçada de 700 ft
Cel ennuvolat a una alçada de 900 ft

METAR: RJCW 150900Z 20008KT 9999 FEW005 SCT007 BKN009 21/20 Q1000

Hora: 04:25 (19:25 UTC)


TAF: manca

Observacions i pronòstics meteorològics de més de 4000 aeroports (METAR i TAF).

Les estacions disponibles són els punts grocs i vermells al mapa.

Posi el ratolí al punt desitjat per veure el nom de l'estació.

Feu clic per veure les observacions i els pronòstics meteorològics.

Per canviar el mapa: feu clic els botons verds amb una creu de color negre per apropar; al botó verd amb un guió per allunyar la imatge; o en les fletxes verdes per a mapes adjacents.


METAR-TAF: